KGEY/GEY METAR and TAF weather

Enter ICAO airport designator
Station Type Date Time Source
KGEY METAR 2018/12/11 22:53 UTC NOAA

KGEY 112253Z AUTO 17006KT 10SM CLR 03/M04 A2993 RMK AO2 SLP167 T00281044


Station Type Date Time Source
KGEY Decoded METAR 2018/12/11 22:53 UTC NOAA

SOUTH BIG HORN COUNTY AIRPORT , WY, United States (KGEY) 44-31N 108-05W 1191M
Dec 11, 2018 - 05:53 PM EST / 2018.12.11 2253 UTC
Wind: from the S (170 degrees) at 7 MPH (6 KT):0
Visibility: 10 mile(s):0
Sky conditions: clear
Temperature: 37.0 F (2.8 C)
Dew Point: 24.1 F (-4.4 C)
Relative Humidity: 59%
Pressure (altimeter): 29.93 in. Hg (1013 hPa)
ob: KGEY 112253Z AUTO 17006KT 10SM CLR 03/M04 A2993 RMK AO2 SLP167 T00281044
cycle: 23

Station Type Date Time Source
KGEY TAF UTC NOAA

Error!


Example: see airport list